sensor_id;sensor_type;location;lat;lon;timestamp;P1;durP1;ratioP1;P2;durP2;ratioP2
7179;SDS011;3631;42.152;24.756;2023-05-09T00:00:32;16.47;;;13.10;;
7179;SDS011;3631;42.152;24.756;2023-05-09T00:03:00;15.70;;;13.90;;
7179;SDS011;3631;42.152;24.756;2023-05-09T00:05:31;16.33;;;13.97;;
7179;SDS011;3631;42.152;24.756;2023-05-09T00:07:58;18.13;;;14.33;;
7179;SDS011;3631;42.152;24.756;2023-05-09T00:10:25;17.00;;;14.10;;
7179;SDS011;3631;42.152;24.756;2023-05-09T00:12:52;18.73;;;13.97;;
7179;SDS011;3631;42.152;24.756;2023-05-09T00:15:20;18.73;;;14.73;;
7179;SDS011;3631;42.152;24.756;2023-05-09T00:17:48;15.30;;;13.70;;
7179;SDS011;3631;42.152;24.756;2023-05-09T00:20:15;16.53;;;14.87;;
7179;SDS011;3631;42.152;24.756;2023-05-09T00:22:43;16.23;;;14.50;;
7179;SDS011;3631;42.152;24.756;2023-05-09T00:25:10;18.63;;;14.90;;
7179;SDS011;3631;42.152;24.756;2023-05-09T00:27:37;18.43;;;15.27;;
7179;SDS011;3631;42.152;24.756;2023-05-09T00:30:04;19.40;;;15.17;;
7179;SDS011;3631;42.152;24.756;2023-05-09T00:32:32;21.63;;;14.70;;
7179;SDS011;3631;42.152;24.756;2023-05-09T00:34:59;23.90;;;16.93;;
7179;SDS011;3631;42.152;24.756;2023-05-09T00:37:27;19.60;;;17.13;;
7179;SDS011;3631;42.152;24.756;2023-05-09T00:39:56;19.77;;;15.87;;
7179;SDS011;3631;42.152;24.756;2023-05-09T00:42:23;21.23;;;16.43;;
7179;SDS011;3631;42.152;24.756;2023-05-09T00:44:50;17.50;;;15.60;;
7179;SDS011;3631;42.152;24.756;2023-05-09T00:47:17;20.83;;;14.23;;
7179;SDS011;3631;42.152;24.756;2023-05-09T00:49:44;17.43;;;15.13;;
7179;SDS011;3631;42.152;24.756;2023-05-09T00:52:11;20.10;;;14.83;;
7179;SDS011;3631;42.152;24.756;2023-05-09T00:54:38;25.90;;;15.90;;
7179;SDS011;3631;42.152;24.756;2023-05-09T00:57:06;17.17;;;14.83;;
7179;SDS011;3631;42.152;24.756;2023-05-09T00:59:33;17.77;;;14.10;;
7179;SDS011;3631;42.152;24.756;2023-05-09T01:02:01;19.67;;;15.67;;
7179;SDS011;3631;42.152;24.756;2023-05-09T01:04:28;18.20;;;14.97;;
7179;SDS011;3631;42.152;24.756;2023-05-09T01:06:56;16.93;;;14.87;;
7179;SDS011;3631;42.152;24.756;2023-05-09T01:09:31;17.20;;;15.37;;
7179;SDS011;3631;42.152;24.756;2023-05-09T01:12:09;19.30;;;16.23;;
7179;SDS011;3631;42.152;24.756;2023-05-09T01:14:43;22.03;;;15.63;;
7179;SDS011;3631;42.152;24.756;2023-05-09T01:17:18;17.33;;;15.47;;
7179;SDS011;3631;42.152;24.756;2023-05-09T01:19:59;21.47;;;15.33;;
7179;SDS011;3631;42.152;24.756;2023-05-09T01:22:35;18.50;;;15.23;;
7179;SDS011;3631;42.152;24.756;2023-05-09T01:28:22;18.67;;;16.67;;
7179;SDS011;3631;42.152;24.756;2023-05-09T01:31:08;20.30;;;16.83;;
7179;SDS011;3631;42.152;24.756;2023-05-09T01:33:36;20.13;;;15.70;;
7179;SDS011;3631;42.152;24.756;2023-05-09T01:36:07;18.43;;;14.53;;
7179;SDS011;3631;42.152;24.756;2023-05-09T01:38:40;17.93;;;15.43;;
7179;SDS011;3631;42.152;24.756;2023-05-09T01:41:07;18.53;;;16.43;;
7179;SDS011;3631;42.152;24.756;2023-05-09T01:43:36;19.40;;;15.57;;
7179;SDS011;3631;42.152;24.756;2023-05-09T01:46:04;19.23;;;16.37;;
7179;SDS011;3631;42.152;24.756;2023-05-09T01:48:33;20.10;;;16.13;;
7179;SDS011;3631;42.152;24.756;2023-05-09T01:51:03;21.70;;;15.77;;
7179;SDS011;3631;42.152;24.756;2023-05-09T01:53:30;18.40;;;16.50;;
7179;SDS011;3631;42.152;24.756;2023-05-09T01:55:59;19.53;;;16.23;;
7179;SDS011;3631;42.152;24.756;2023-05-09T01:58:28;24.13;;;16.30;;
7179;SDS011;3631;42.152;24.756;2023-05-09T02:00:59;21.30;;;15.67;;
7179;SDS011;3631;42.152;24.756;2023-05-09T02:03:26;17.77;;;14.90;;
7179;SDS011;3631;42.152;24.756;2023-05-09T02:05:55;18.70;;;15.67;;
7179;SDS011;3631;42.152;24.756;2023-05-09T02:08:23;19.07;;;14.77;;
7179;SDS011;3631;42.152;24.756;2023-05-09T02:10:50;18.00;;;14.43;;
7179;SDS011;3631;42.152;24.756;2023-05-09T02:13:17;19.13;;;14.20;;
7179;SDS011;3631;42.152;24.756;2023-05-09T02:15:44;16.47;;;14.10;;
7179;SDS011;3631;42.152;24.756;2023-05-09T02:18:12;18.67;;;14.17;;
7179;SDS011;3631;42.152;24.756;2023-05-09T02:20:41;18.47;;;15.00;;
7179;SDS011;3631;42.152;24.756;2023-05-09T02:23:09;16.97;;;15.17;;
7179;SDS011;3631;42.152;24.756;2023-05-09T02:25:36;20.43;;;15.47;;
7179;SDS011;3631;42.152;24.756;2023-05-09T02:28:04;19.77;;;15.03;;
7179;SDS011;3631;42.152;24.756;2023-05-09T02:30:34;20.53;;;15.80;;
7179;SDS011;3631;42.152;24.756;2023-05-09T02:33:05;18.63;;;14.40;;
7179;SDS011;3631;42.152;24.756;2023-05-09T02:35:33;17.93;;;14.93;;
7179;SDS011;3631;42.152;24.756;2023-05-09T02:38:01;21.43;;;15.33;;
7179;SDS011;3631;42.152;24.756;2023-05-09T02:40:30;19.30;;;14.90;;
7179;SDS011;3631;42.152;24.756;2023-05-09T02:42:58;21.03;;;16.10;;
7179;SDS011;3631;42.152;24.756;2023-05-09T02:45:25;17.53;;;15.67;;
7179;SDS011;3631;42.152;24.756;2023-05-09T02:47:52;19.53;;;15.63;;
7179;SDS011;3631;42.152;24.756;2023-05-09T02:50:19;20.63;;;14.87;;
7179;SDS011;3631;42.152;24.756;2023-05-09T02:52:46;20.83;;;14.93;;
7179;SDS011;3631;42.152;24.756;2023-05-09T02:55:12;20.17;;;15.27;;
7179;SDS011;3631;42.152;24.756;2023-05-09T02:57:41;18.07;;;15.53;;
7179;SDS011;3631;42.152;24.756;2023-05-09T03:00:08;25.37;;;16.20;;
7179;SDS011;3631;42.152;24.756;2023-05-09T03:02:36;20.67;;;14.37;;
7179;SDS011;3631;42.152;24.756;2023-05-09T03:05:03;19.90;;;14.30;;
7179;SDS011;3631;42.152;24.756;2023-05-09T03:07:31;18.27;;;15.60;;
7179;SDS011;3631;42.152;24.756;2023-05-09T03:09:58;19.50;;;15.13;;
7179;SDS011;3631;42.152;24.756;2023-05-09T03:12:25;19.87;;;15.27;;
7179;SDS011;3631;42.152;24.756;2023-05-09T03:14:53;23.70;;;15.87;;
7179;SDS011;3631;42.152;24.756;2023-05-09T03:17:20;18.43;;;16.27;;
7179;SDS011;3631;42.152;24.756;2023-05-09T03:19:47;21.20;;;16.67;;
7179;SDS011;3631;42.152;24.756;2023-05-09T03:22:14;20.93;;;16.30;;
7179;SDS011;3631;42.152;24.756;2023-05-09T03:24:41;17.97;;;15.80;;
7179;SDS011;3631;42.152;24.756;2023-05-09T03:27:08;19.37;;;16.70;;
7179;SDS011;3631;42.152;24.756;2023-05-09T03:29:35;18.60;;;16.13;;
7179;SDS011;3631;42.152;24.756;2023-05-09T03:32:03;18.13;;;16.10;;
7179;SDS011;3631;42.152;24.756;2023-05-09T03:34:30;20.50;;;16.27;;
7179;SDS011;3631;42.152;24.756;2023-05-09T03:36:57;21.93;;;17.53;;
7179;SDS011;3631;42.152;24.756;2023-05-09T03:39:24;17.83;;;15.97;;
7179;SDS011;3631;42.152;24.756;2023-05-09T03:41:51;20.33;;;16.93;;
7179;SDS011;3631;42.152;24.756;2023-05-09T03:44:18;18.67;;;15.47;;
7179;SDS011;3631;42.152;24.756;2023-05-09T03:46:45;22.63;;;16.47;;
7179;SDS011;3631;42.152;24.756;2023-05-09T03:49:13;22.10;;;17.30;;
7179;SDS011;3631;42.152;24.756;2023-05-09T03:51:40;23.43;;;19.23;;
7179;SDS011;3631;42.152;24.756;2023-05-09T03:54:07;22.80;;;17.27;;
7179;SDS011;3631;42.152;24.756;2023-05-09T03:56:34;16.80;;;15.03;;
7179;SDS011;3631;42.152;24.756;2023-05-09T03:59:01;21.93;;;15.33;;
7179;SDS011;3631;42.152;24.756;2023-05-09T04:01:28;18.77;;;15.70;;
7179;SDS011;3631;42.152;24.756;2023-05-09T04:03:55;20.67;;;16.40;;
7179;SDS011;3631;42.152;24.756;2023-05-09T04:06:24;21.87;;;16.53;;
7179;SDS011;3631;42.152;24.756;2023-05-09T04:08:51;22.40;;;16.87;;
7179;SDS011;3631;42.152;24.756;2023-05-09T04:11:18;19.97;;;16.13;;
7179;SDS011;3631;42.152;24.756;2023-05-09T04:13:45;19.97;;;16.90;;
7179;SDS011;3631;42.152;24.756;2023-05-09T04:16:12;22.93;;;17.83;;
7179;SDS011;3631;42.152;24.756;2023-05-09T04:18:39;19.47;;;16.13;;
7179;SDS011;3631;42.152;24.756;2023-05-09T04:21:07;20.10;;;15.77;;
7179;SDS011;3631;42.152;24.756;2023-05-09T04:23:35;23.73;;;16.57;;
7179;SDS011;3631;42.152;24.756;2023-05-09T04:26:02;19.10;;;15.90;;
7179;SDS011;3631;42.152;24.756;2023-05-09T04:28:29;21.90;;;16.77;;
7179;SDS011;3631;42.152;24.756;2023-05-09T04:30:56;19.63;;;15.80;;
7179;SDS011;3631;42.152;24.756;2023-05-09T04:33:23;22.27;;;16.63;;
7179;SDS011;3631;42.152;24.756;2023-05-09T04:35:50;22.63;;;16.57;;
7179;SDS011;3631;42.152;24.756;2023-05-09T04:38:17;23.43;;;17.77;;
7179;SDS011;3631;42.152;24.756;2023-05-09T04:40:45;22.77;;;17.47;;
7179;SDS011;3631;42.152;24.756;2023-05-09T04:43:12;22.40;;;16.93;;
7179;SDS011;3631;42.152;24.756;2023-05-09T04:45:39;25.00;;;16.87;;
7179;SDS011;3631;42.152;24.756;2023-05-09T04:48:06;20.40;;;15.13;;
7179;SDS011;3631;42.152;24.756;2023-05-09T04:50:33;20.43;;;15.63;;
7179;SDS011;3631;42.152;24.756;2023-05-09T04:53:00;17.10;;;15.33;;
7179;SDS011;3631;42.152;24.756;2023-05-09T04:55:27;14.77;;;13.27;;
7179;SDS011;3631;42.152;24.756;2023-05-09T04:57:55;17.20;;;14.23;;
7179;SDS011;3631;42.152;24.756;2023-05-09T05:00:22;17.10;;;13.77;;
7179;SDS011;3631;42.152;24.756;2023-05-09T05:02:49;16.47;;;14.20;;
7179;SDS011;3631;42.152;24.756;2023-05-09T05:05:16;14.93;;;13.33;;
7179;SDS011;3631;42.152;24.756;2023-05-09T05:07:43;15.23;;;13.63;;
7179;SDS011;3631;42.152;24.756;2023-05-09T05:10:10;15.77;;;12.20;;
7179;SDS011;3631;42.152;24.756;2023-05-09T05:12:37;15.33;;;12.40;;
7179;SDS011;3631;42.152;24.756;2023-05-09T05:15:06;13.70;;;12.23;;
7179;SDS011;3631;42.152;24.756;2023-05-09T05:17:33;16.63;;;12.43;;
7179;SDS011;3631;42.152;24.756;2023-05-09T05:20:00;15.93;;;13.43;;
7179;SDS011;3631;42.152;24.756;2023-05-09T05:22:30;14.30;;;12.90;;
7179;SDS011;3631;42.152;24.756;2023-05-09T05:24:57;14.37;;;12.97;;
7179;SDS011;3631;42.152;24.756;2023-05-09T05:27:24;21.60;;;13.70;;
7179;SDS011;3631;42.152;24.756;2023-05-09T05:29:51;18.17;;;14.40;;
7179;SDS011;3631;42.152;24.756;2023-05-09T05:32:19;15.30;;;13.67;;
7179;SDS011;3631;42.152;24.756;2023-05-09T05:34:46;14.30;;;12.87;;
7179;SDS011;3631;42.152;24.756;2023-05-09T05:37:13;18.13;;;14.73;;
7179;SDS011;3631;42.152;24.756;2023-05-09T05:39:40;19.27;;;14.67;;
7179;SDS011;3631;42.152;24.756;2023-05-09T05:42:07;18.23;;;13.87;;
7179;SDS011;3631;42.152;24.756;2023-05-09T05:44:34;18.73;;;14.17;;
7179;SDS011;3631;42.152;24.756;2023-05-09T05:47:00;18.80;;;15.33;;
7179;SDS011;3631;42.152;24.756;2023-05-09T05:49:29;19.03;;;13.87;;
7179;SDS011;3631;42.152;24.756;2023-05-09T05:51:56;19.03;;;15.27;;
7179;SDS011;3631;42.152;24.756;2023-05-09T05:54:23;17.53;;;13.30;;
7179;SDS011;3631;42.152;24.756;2023-05-09T05:56:49;18.97;;;13.80;;
7179;SDS011;3631;42.152;24.756;2023-05-09T05:59:16;20.63;;;13.57;;
7179;SDS011;3631;42.152;24.756;2023-05-09T06:01:43;22.03;;;14.03;;
7179;SDS011;3631;42.152;24.756;2023-05-09T06:04:10;19.50;;;13.83;;
7179;SDS011;3631;42.152;24.756;2023-05-09T06:06:38;16.13;;;14.20;;
7179;SDS011;3631;42.152;24.756;2023-05-09T06:09:05;14.53;;;13.10;;
7179;SDS011;3631;42.152;24.756;2023-05-09T06:11:32;16.53;;;12.90;;
7179;SDS011;3631;42.152;24.756;2023-05-09T06:13:59;17.60;;;13.70;;
7179;SDS011;3631;42.152;24.756;2023-05-09T06:16:26;17.40;;;13.43;;
7179;SDS011;3631;42.152;24.756;2023-05-09T06:18:53;18.80;;;14.40;;
7179;SDS011;3631;42.152;24.756;2023-05-09T06:21:20;19.77;;;15.43;;
7179;SDS011;3631;42.152;24.756;2023-05-09T06:23:48;19.93;;;15.57;;
7179;SDS011;3631;42.152;24.756;2023-05-09T06:26:15;17.90;;;14.60;;
7179;SDS011;3631;42.152;24.756;2023-05-09T06:28:42;19.10;;;15.10;;
7179;SDS011;3631;42.152;24.756;2023-05-09T06:31:09;18.47;;;14.37;;
7179;SDS011;3631;42.152;24.756;2023-05-09T06:33:36;29.80;;;18.20;;
7179;SDS011;3631;42.152;24.756;2023-05-09T06:36:03;25.03;;;19.37;;
7179;SDS011;3631;42.152;24.756;2023-05-09T06:38:30;23.63;;;16.00;;
7179;SDS011;3631;42.152;24.756;2023-05-09T06:41:00;23.03;;;16.37;;
7179;SDS011;3631;42.152;24.756;2023-05-09T06:43:27;24.70;;;17.13;;
7179;SDS011;3631;42.152;24.756;2023-05-09T06:45:54;30.97;;;18.23;;
7179;SDS011;3631;42.152;24.756;2023-05-09T06:48:21;29.77;;;18.60;;
7179;SDS011;3631;42.152;24.756;2023-05-09T06:50:48;21.83;;;17.70;;
7179;SDS011;3631;42.152;24.756;2023-05-09T06:53:15;23.57;;;17.17;;
7179;SDS011;3631;42.152;24.756;2023-05-09T06:55:42;24.27;;;16.20;;
7179;SDS011;3631;42.152;24.756;2023-05-09T06:58:11;23.30;;;16.50;;
7179;SDS011;3631;42.152;24.756;2023-05-09T07:00:38;24.67;;;15.77;;
7179;SDS011;3631;42.152;24.756;2023-05-09T07:03:05;24.60;;;17.23;;
7179;SDS011;3631;42.152;24.756;2023-05-09T07:05:32;23.80;;;16.33;;
7179;SDS011;3631;42.152;24.756;2023-05-09T07:07:59;23.43;;;17.83;;
7179;SDS011;3631;42.152;24.756;2023-05-09T07:10:26;26.43;;;17.53;;
7179;SDS011;3631;42.152;24.756;2023-05-09T07:12:53;27.03;;;18.33;;
7179;SDS011;3631;42.152;24.756;2023-05-09T07:15:21;29.13;;;18.40;;
7179;SDS011;3631;42.152;24.756;2023-05-09T07:17:48;27.57;;;18.90;;
7179;SDS011;3631;42.152;24.756;2023-05-09T07:20:16;27.53;;;19.80;;
7179;SDS011;3631;42.152;24.756;2023-05-09T07:22:43;27.30;;;19.03;;
7179;SDS011;3631;42.152;24.756;2023-05-09T07:25:10;32.87;;;21.37;;
7179;SDS011;3631;42.152;24.756;2023-05-09T07:27:37;30.43;;;20.67;;
7179;SDS011;3631;42.152;24.756;2023-05-09T07:30:04;28.77;;;20.57;;
7179;SDS011;3631;42.152;24.756;2023-05-09T07:32:34;30.20;;;20.83;;
7179;SDS011;3631;42.152;24.756;2023-05-09T07:35:01;28.57;;;20.53;;
7179;SDS011;3631;42.152;24.756;2023-05-09T07:37:28;24.67;;;17.63;;
7179;SDS011;3631;42.152;24.756;2023-05-09T07:39:55;31.30;;;21.60;;
7179;SDS011;3631;42.152;24.756;2023-05-09T07:42:22;31.83;;;21.00;;
7179;SDS011;3631;42.152;24.756;2023-05-09T07:44:49;28.00;;;19.20;;
7179;SDS011;3631;42.152;24.756;2023-05-09T07:47:16;38.80;;;20.40;;
7179;SDS011;3631;42.152;24.756;2023-05-09T07:49:44;34.63;;;20.83;;
7179;SDS011;3631;42.152;24.756;2023-05-09T07:52:12;29.13;;;21.13;;
7179;SDS011;3631;42.152;24.756;2023-05-09T07:54:39;34.30;;;21.10;;
7179;SDS011;3631;42.152;24.756;2023-05-09T07:57:06;35.37;;;22.57;;
7179;SDS011;3631;42.152;24.756;2023-05-09T07:59:32;31.57;;;23.83;;
7179;SDS011;3631;42.152;24.756;2023-05-09T08:01:59;33.10;;;21.77;;
7179;SDS011;3631;42.152;24.756;2023-05-09T08:04:26;29.27;;;22.73;;
7179;SDS011;3631;42.152;24.756;2023-05-09T08:06:55;34.37;;;22.97;;
7179;SDS011;3631;42.152;24.756;2023-05-09T08:09:22;34.03;;;23.63;;
7179;SDS011;3631;42.152;24.756;2023-05-09T08:11:48;34.53;;;23.63;;
7179;SDS011;3631;42.152;24.756;2023-05-09T08:14:15;31.70;;;22.37;;
7179;SDS011;3631;42.152;24.756;2023-05-09T08:16:42;30.17;;;21.80;;
7179;SDS011;3631;42.152;24.756;2023-05-09T08:19:09;31.40;;;23.30;;
7179;SDS011;3631;42.152;24.756;2023-05-09T08:21:36;35.33;;;23.40;;
7179;SDS011;3631;42.152;24.756;2023-05-09T08:24:05;32.47;;;20.87;;
7179;SDS011;3631;42.152;24.756;2023-05-09T08:26:33;29.70;;;19.77;;
7179;SDS011;3631;42.152;24.756;2023-05-09T08:29:02;37.47;;;21.73;;
7179;SDS011;3631;42.152;24.756;2023-05-09T08:31:29;30.73;;;20.10;;
7179;SDS011;3631;42.152;24.756;2023-05-09T08:33:56;33.07;;;22.40;;
7179;SDS011;3631;42.152;24.756;2023-05-09T08:36:23;31.33;;;22.23;;
7179;SDS011;3631;42.152;24.756;2023-05-09T08:38:50;32.53;;;23.00;;
7179;SDS011;3631;42.152;24.756;2023-05-09T08:41:18;33.10;;;22.47;;
7179;SDS011;3631;42.152;24.756;2023-05-09T08:43:52;27.87;;;19.60;;
7179;SDS011;3631;42.152;24.756;2023-05-09T08:46:21;34.13;;;20.30;;
7179;SDS011;3631;42.152;24.756;2023-05-09T08:48:53;32.17;;;20.47;;
7179;SDS011;3631;42.152;24.756;2023-05-09T08:51:21;34.60;;;20.83;;
7179;SDS011;3631;42.152;24.756;2023-05-09T08:53:49;28.77;;;18.10;;
7179;SDS011;3631;42.152;24.756;2023-05-09T08:56:16;30.50;;;19.13;;
7179;SDS011;3631;42.152;24.756;2023-05-09T08:58:45;30.47;;;18.70;;
7179;SDS011;3631;42.152;24.756;2023-05-09T09:01:12;33.67;;;20.33;;
7179;SDS011;3631;42.152;24.756;2023-05-09T09:03:39;30.73;;;19.23;;
7179;SDS011;3631;42.152;24.756;2023-05-09T09:06:11;26.83;;;19.57;;
7179;SDS011;3631;42.152;24.756;2023-05-09T09:08:39;29.10;;;21.17;;
7179;SDS011;3631;42.152;24.756;2023-05-09T09:11:09;36.13;;;23.70;;
7179;SDS011;3631;42.152;24.756;2023-05-09T09:13:39;31.87;;;20.80;;
7179;SDS011;3631;42.152;24.756;2023-05-09T09:16:08;29.80;;;19.70;;
7179;SDS011;3631;42.152;24.756;2023-05-09T09:18:36;26.37;;;20.00;;
7179;SDS011;3631;42.152;24.756;2023-05-09T09:21:05;25.67;;;20.33;;
7179;SDS011;3631;42.152;24.756;2023-05-09T09:23:34;26.50;;;19.37;;
7179;SDS011;3631;42.152;24.756;2023-05-09T09:26:04;24.93;;;18.03;;
7179;SDS011;3631;42.152;24.756;2023-05-09T09:28:32;23.70;;;17.73;;
7179;SDS011;3631;42.152;24.756;2023-05-09T09:30:59;21.50;;;17.30;;
7179;SDS011;3631;42.152;24.756;2023-05-09T09:33:27;23.37;;;17.57;;
7179;SDS011;3631;42.152;24.756;2023-05-09T09:35:55;22.80;;;17.67;;
7179;SDS011;3631;42.152;24.756;2023-05-09T09:38:23;26.37;;;17.70;;
7179;SDS011;3631;42.152;24.756;2023-05-09T09:40:54;24.50;;;17.60;;
7179;SDS011;3631;42.152;24.756;2023-05-09T09:43:28;24.37;;;17.43;;
7179;SDS011;3631;42.152;24.756;2023-05-09T09:45:56;27.07;;;16.13;;
7179;SDS011;3631;42.152;24.756;2023-05-09T09:48:29;22.33;;;16.17;;
7179;SDS011;3631;42.152;24.756;2023-05-09T09:50:58;23.40;;;17.13;;
7179;SDS011;3631;42.152;24.756;2023-05-09T09:53:29;23.23;;;18.50;;
7179;SDS011;3631;42.152;24.756;2023-05-09T09:56:00;26.20;;;18.90;;
7179;SDS011;3631;42.152;24.756;2023-05-09T09:58:27;28.57;;;20.13;;
7179;SDS011;3631;42.152;24.756;2023-05-09T10:01:04;27.47;;;20.20;;
7179;SDS011;3631;42.152;24.756;2023-05-09T10:03:36;28.87;;;20.20;;
7179;SDS011;3631;42.152;24.756;2023-05-09T10:06:04;28.70;;;17.27;;
7179;SDS011;3631;42.152;24.756;2023-05-09T10:08:34;31.40;;;19.97;;
7179;SDS011;3631;42.152;24.756;2023-05-09T10:11:01;23.37;;;17.63;;
7179;SDS011;3631;42.152;24.756;2023-05-09T10:13:28;26.23;;;19.30;;
7179;SDS011;3631;42.152;24.756;2023-05-09T10:15:55;26.77;;;19.20;;
7179;SDS011;3631;42.152;24.756;2023-05-09T10:18:25;25.33;;;18.07;;
7179;SDS011;3631;42.152;24.756;2023-05-09T10:20:56;28.07;;;19.67;;
7179;SDS011;3631;42.152;24.756;2023-05-09T10:23:26;27.20;;;18.63;;
7179;SDS011;3631;42.152;24.756;2023-05-09T10:25:57;26.07;;;17.13;;
7179;SDS011;3631;42.152;24.756;2023-05-09T10:28:31;22.43;;;15.87;;
7179;SDS011;3631;42.152;24.756;2023-05-09T10:31:03;21.13;;;17.07;;
7179;SDS011;3631;42.152;24.756;2023-05-09T10:33:41;25.07;;;16.73;;
7179;SDS011;3631;42.152;24.756;2023-05-09T10:36:13;21.90;;;17.07;;
7179;SDS011;3631;42.152;24.756;2023-05-09T10:38:42;22.13;;;15.33;;
7179;SDS011;3631;42.152;24.756;2023-05-09T10:41:10;21.50;;;16.33;;
7179;SDS011;3631;42.152;24.756;2023-05-09T10:43:37;20.17;;;15.40;;
7179;SDS011;3631;42.152;24.756;2023-05-09T10:46:05;16.87;;;13.83;;
7179;SDS011;3631;42.152;24.756;2023-05-09T10:48:32;24.27;;;16.50;;
7179;SDS011;3631;42.152;24.756;2023-05-09T10:50:59;19.17;;;15.50;;
7179;SDS011;3631;42.152;24.756;2023-05-09T10:53:40;18.13;;;14.37;;
7179;SDS011;3631;42.152;24.756;2023-05-09T10:56:08;21.57;;;14.07;;
7179;SDS011;3631;42.152;24.756;2023-05-09T10:58:48;17.27;;;15.47;;
7179;SDS011;3631;42.152;24.756;2023-05-09T11:01:15;17.73;;;15.73;;
7179;SDS011;3631;42.152;24.756;2023-05-09T11:03:55;17.07;;;13.33;;
7179;SDS011;3631;42.152;24.756;2023-05-09T11:09:24;20.17;;;15.50;;
7179;SDS011;3631;42.152;24.756;2023-05-09T11:11:53;20.90;;;16.00;;
7179;SDS011;3631;42.152;24.756;2023-05-09T11:14:28;26.73;;;18.73;;
7179;SDS011;3631;42.152;24.756;2023-05-09T11:16:56;28.13;;;18.40;;
7179;SDS011;3631;42.152;24.756;2023-05-09T11:19:33;24.53;;;17.00;;
7179;SDS011;3631;42.152;24.756;2023-05-09T11:22:12;22.17;;;17.70;;
7179;SDS011;3631;42.152;24.756;2023-05-09T11:24:45;25.20;;;17.30;;
7179;SDS011;3631;42.152;24.756;2023-05-09T11:27:14;25.00;;;16.37;;
7179;SDS011;3631;42.152;24.756;2023-05-09T11:29:42;23.43;;;15.10;;
7179;SDS011;3631;42.152;24.756;2023-05-09T11:32:12;22.67;;;15.43;;
7179;SDS011;3631;42.152;24.756;2023-05-09T11:34:41;24.03;;;13.83;;
7179;SDS011;3631;42.152;24.756;2023-05-09T11:37:09;16.13;;;13.47;;
7179;SDS011;3631;42.152;24.756;2023-05-09T11:42:24;18.83;;;13.43;;
7179;SDS011;3631;42.152;24.756;2023-05-09T11:44:52;20.80;;;14.10;;
7179;SDS011;3631;42.152;24.756;2023-05-09T11:47:19;18.03;;;14.33;;
7179;SDS011;3631;42.152;24.756;2023-05-09T11:49:46;22.23;;;14.57;;
7179;SDS011;3631;42.152;24.756;2023-05-09T11:52:14;15.27;;;13.50;;
7179;SDS011;3631;42.152;24.756;2023-05-09T11:54:41;22.97;;;15.83;;
7179;SDS011;3631;42.152;24.756;2023-05-09T11:57:09;18.77;;;14.97;;
7179;SDS011;3631;42.152;24.756;2023-05-09T11:59:41;26.03;;;17.50;;
7179;SDS011;3631;42.152;24.756;2023-05-09T12:02:08;20.77;;;15.37;;
7179;SDS011;3631;42.152;24.756;2023-05-09T12:04:35;27.67;;;17.83;;
7179;SDS011;3631;42.152;24.756;2023-05-09T12:07:02;22.40;;;14.63;;
7179;SDS011;3631;42.152;24.756;2023-05-09T12:09:30;23.03;;;16.83;;
7179;SDS011;3631;42.152;24.756;2023-05-09T12:11:58;21.10;;;16.20;;
7179;SDS011;3631;42.152;24.756;2023-05-09T12:14:28;20.83;;;15.27;;
7179;SDS011;3631;42.152;24.756;2023-05-09T12:16:55;22.80;;;16.40;;
7179;SDS011;3631;42.152;24.756;2023-05-09T12:19:23;25.07;;;15.93;;
7179;SDS011;3631;42.152;24.756;2023-05-09T12:21:53;18.70;;;15.00;;
7179;SDS011;3631;42.152;24.756;2023-05-09T12:24:21;24.67;;;18.10;;
7179;SDS011;3631;42.152;24.756;2023-05-09T12:26:50;20.90;;;16.93;;
7179;SDS011;3631;42.152;24.756;2023-05-09T12:29:18;19.40;;;16.10;;
7179;SDS011;3631;42.152;24.756;2023-05-09T12:31:48;26.67;;;16.93;;
7179;SDS011;3631;42.152;24.756;2023-05-09T12:34:15;29.50;;;16.87;;
7179;SDS011;3631;42.152;24.756;2023-05-09T12:36:42;21.53;;;15.53;;
7179;SDS011;3631;42.152;24.756;2023-05-09T12:39:15;19.63;;;15.40;;
7179;SDS011;3631;42.152;24.756;2023-05-09T12:41:46;19.43;;;16.00;;
7179;SDS011;3631;42.152;24.756;2023-05-09T12:44:17;20.90;;;15.80;;
7179;SDS011;3631;42.152;24.756;2023-05-09T12:46:55;24.90;;;17.00;;
7179;SDS011;3631;42.152;24.756;2023-05-09T12:49:22;20.00;;;15.87;;
7179;SDS011;3631;42.152;24.756;2023-05-09T12:51:50;19.47;;;16.13;;
7179;SDS011;3631;42.152;24.756;2023-05-09T12:54:21;18.33;;;13.93;;
7179;SDS011;3631;42.152;24.756;2023-05-09T12:56:48;19.10;;;16.60;;
7179;SDS011;3631;42.152;24.756;2023-05-09T12:59:20;16.93;;;15.00;;
7179;SDS011;3631;42.152;24.756;2023-05-09T13:01:53;15.60;;;11.93;;
7179;SDS011;3631;42.152;24.756;2023-05-09T13:04:21;13.50;;;12.03;;
7179;SDS011;3631;42.152;24.756;2023-05-09T13:06:49;17.17;;;12.00;;
7179;SDS011;3631;42.152;24.756;2023-05-09T13:09:18;16.73;;;13.03;;
7179;SDS011;3631;42.152;24.756;2023-05-09T13:11:45;19.27;;;14.37;;
7179;SDS011;3631;42.152;24.756;2023-05-09T13:14:12;24.27;;;15.43;;
7179;SDS011;3631;42.152;24.756;2023-05-09T13:16:39;18.43;;;15.30;;
7179;SDS011;3631;42.152;24.756;2023-05-09T13:19:08;17.47;;;13.63;;
7179;SDS011;3631;42.152;24.756;2023-05-09T13:21:35;15.07;;;12.77;;
7179;SDS011;3631;42.152;24.756;2023-05-09T13:24:02;13.63;;;12.23;;
7179;SDS011;3631;42.152;24.756;2023-05-09T13:26:29;15.43;;;11.63;;
7179;SDS011;3631;42.152;24.756;2023-05-09T13:28:56;18.20;;;13.17;;
7179;SDS011;3631;42.152;24.756;2023-05-09T13:31:23;12.73;;;11.43;;
7179;SDS011;3631;42.152;24.756;2023-05-09T13:33:50;15.37;;;11.30;;
7179;SDS011;3631;42.152;24.756;2023-05-09T13:36:19;13.63;;;11.57;;
7179;SDS011;3631;42.152;24.756;2023-05-09T13:38:46;14.17;;;11.87;;
7179;SDS011;3631;42.152;24.756;2023-05-09T13:41:12;13.03;;;11.63;;
7179;SDS011;3631;42.152;24.756;2023-05-09T13:43:44;14.10;;;11.33;;
7179;SDS011;3631;42.152;24.756;2023-05-09T13:46:11;15.93;;;12.77;;
7179;SDS011;3631;42.152;24.756;2023-05-09T13:48:38;20.27;;;12.97;;
7179;SDS011;3631;42.152;24.756;2023-05-09T13:51:06;14.40;;;12.90;;
7179;SDS011;3631;42.152;24.756;2023-05-09T13:53:35;17.40;;;11.47;;
7179;SDS011;3631;42.152;24.756;2023-05-09T13:56:03;15.83;;;11.83;;
7179;SDS011;3631;42.152;24.756;2023-05-09T13:58:31;15.17;;;11.63;;
7179;SDS011;3631;42.152;24.756;2023-05-09T14:00:58;20.63;;;11.27;;
7179;SDS011;3631;42.152;24.756;2023-05-09T14:03:25;14.33;;;10.77;;
7179;SDS011;3631;42.152;24.756;2023-05-09T14:05:52;18.73;;;10.20;;
7179;SDS011;3631;42.152;24.756;2023-05-09T14:08:19;10.93;;;9.83;;
7179;SDS011;3631;42.152;24.756;2023-05-09T14:10:47;11.23;;;10.07;;
7179;SDS011;3631;42.152;24.756;2023-05-09T14:13:15;12.43;;;11.07;;
7179;SDS011;3631;42.152;24.756;2023-05-09T14:15:42;11.30;;;10.20;;
7179;SDS011;3631;42.152;24.756;2023-05-09T14:18:09;9.93;;;8.93;;
7179;SDS011;3631;42.152;24.756;2023-05-09T14:20:37;9.10;;;8.17;;
7179;SDS011;3631;42.152;24.756;2023-05-09T14:23:04;17.03;;;9.47;;
7179;SDS011;3631;42.152;24.756;2023-05-09T14:25:31;9.70;;;8.27;;
7179;SDS011;3631;42.152;24.756;2023-05-09T14:28:00;7.73;;;7.13;;
7179;SDS011;3631;42.152;24.756;2023-05-09T14:30:26;8.80;;;7.70;;
7179;SDS011;3631;42.152;24.756;2023-05-09T14:32:53;10.27;;;7.70;;
7179;SDS011;3631;42.152;24.756;2023-05-09T14:35:21;10.53;;;8.10;;
7179;SDS011;3631;42.152;24.756;2023-05-09T14:37:49;13.60;;;7.47;;
7179;SDS011;3631;42.152;24.756;2023-05-09T14:40:16;9.43;;;8.53;;
7179;SDS011;3631;42.152;24.756;2023-05-09T14:42:43;10.70;;;9.00;;
7179;SDS011;3631;42.152;24.756;2023-05-09T14:45:11;10.13;;;8.50;;
7179;SDS011;3631;42.152;24.756;2023-05-09T14:47:39;9.30;;;8.50;;
7179;SDS011;3631;42.152;24.756;2023-05-09T14:50:07;11.70;;;8.50;;